Time;durP1;ratioP1;P1;durP2;ratioP2;P2;SDS_P1;SDS_P2;PMS_P1;PMS_P2;Temp;Humidity;BMP_temperature;BMP_pressure;BME280_temperature;BME280_humidity;BME280_pressure;Samples;Min_cycle;Max_cycle;Signal;HPM_P1;HPM_P2
2022/07/19 00:01:05;;;;;;;4.67;4.27;;;21.20;61.00;;;;;;5014583;28;20949;-84
2022/07/19 00:03:32;;;;;;;4.93;4.60;;;21.20;61.50;;;;;;5014095;28;20491;-84
2022/07/19 00:05:59;;;;;;;5.10;4.70;;;21.20;61.30;;;;;;5013695;28;20449;-85
2022/07/19 00:08:25;;;;;;;5.37;4.87;;;21.10;61.90;;;;;;5014064;28;20980;-84
2022/07/19 00:10:54;;;;;;;5.00;4.50;;;21.00;63.00;;;;;;5013903;28;20481;-85
2022/07/19 00:13:24;;;;;;;4.97;4.57;;;21.00;63.60;;;;;;5013993;28;20471;-84
2022/07/19 00:15:51;;;;;;;4.40;4.03;;;20.90;63.80;;;;;;5013742;28;20562;-84
2022/07/19 00:18:18;;;;;;;5.37;4.97;;;20.90;64.40;;;;;;5014051;28;20467;-84
2022/07/19 00:20:46;;;;;;;5.07;4.63;;;20.80;64.80;;;;;;5013965;28;20461;-84
2022/07/19 00:23:19;;;;;;;5.33;4.83;;;20.80;65.10;;;;;;5013752;28;20517;-84
2022/07/19 00:25:46;;;;;;;4.27;3.93;;;20.80;65.60;;;;;;5013394;28;20770;-84
2022/07/19 00:28:17;;;;;;;4.57;4.27;;;20.70;65.80;;;;;;5014222;28;20459;-84
2022/07/19 00:30:43;;;;;;;6.07;5.47;;;20.70;66.20;;;;;;5010092;28;20491;-84
2022/07/19 00:33:11;;;;;;;4.80;4.03;;;20.70;66.90;;;;;;5013633;28;20473;-84
2022/07/19 00:35:38;;;;;;;4.73;4.40;;;20.60;68.20;;;;;;5013456;28;20510;-85
2022/07/19 00:38:13;;;;;;;6.90;4.60;;;20.50;68.70;;;;;;5013440;28;20935;-84
2022/07/19 00:40:41;;;;;;;4.57;4.23;;;20.50;69.00;;;;;;5013205;28;20468;-84
2022/07/19 00:45:51;;;;;;;6.80;4.57;;;20.40;69.80;;;;;;5011406;28;20818;-84
2022/07/19 00:48:18;;;;;;;4.83;4.40;;;20.40;70.30;;;;;;5012664;28;20457;-84
2022/07/19 00:50:45;;;;;;;5.80;5.30;;;20.30;70.90;;;;;;5013476;28;20541;-84
2022/07/19 00:53:14;;;;;;;5.53;5.07;;;20.30;71.50;;;;;;5014978;28;20505;-84
2022/07/19 01:01:14;;;;;;;5.37;4.97;;;20.10;73.20;;;;;;5012945;28;20449;-84
2022/07/19 01:03:41;;;;;;;5.70;5.20;;;20.00;73.60;;;;;;4993801;28;20500;-84
2022/07/19 01:06:12;;;;;;;5.50;4.93;;;20.00;74.10;;;;;;4993562;28;20476;-84
2022/07/19 01:08:40;;;;;;;5.57;5.07;;;20.00;74.30;;;;;;5013022;28;20459;-84
2022/07/19 01:11:07;;;;;;;5.27;4.87;;;19.90;74.30;;;;;;5013208;28;20452;-84
2022/07/19 01:13:34;;;;;;;4.43;4.13;;;19.90;75.20;;;;;;5012874;28;20836;-84
2022/07/19 01:16:01;;;;;;;5.53;4.87;;;19.90;74.60;;;;;;5012930;28;20454;-84
2022/07/19 01:18:29;;;;;;;5.50;5.07;;;19.90;74.60;;;;;;5012923;28;20461;-84
2022/07/19 01:20:58;;;;;;;6.83;4.60;;;19.80;74.00;;;;;;5013009;28;20470;-84
2022/07/19 01:23:30;;;;;;;4.87;4.47;;;19.80;73.70;;;;;;5012467;28;20503;-84
2022/07/19 01:25:57;;;;;;;6.00;5.03;;;19.80;73.70;;;;;;5012935;28;20466;-84
2022/07/19 01:28:23;;;;;;;5.37;4.60;;;19.80;73.70;;;;;;5012604;28;20836;-84
2022/07/19 01:30:56;;;;;;;4.83;4.50;;;19.80;73.90;;;;;;5013497;28;20823;-84
2022/07/19 01:33:23;;;;;;;6.47;5.60;;;19.80;73.90;;;;;;5012666;28;20826;-84
2022/07/19 01:35:50;;;;;;;4.53;4.23;;;19.70;74.30;;;;;;5012676;28;20439;-84
2022/07/19 01:38:51;;;;;;;7.80;5.43;;;19.70;74.10;;;;;;5015235;28;20490;-84
2022/07/19 01:41:18;;;;;;;6.20;4.60;;;19.70;73.80;;;;;;5014744;28;20559;-84
2022/07/19 01:43:51;;;;;;;6.03;5.63;;;19.60;74.70;;;;;;5012310;28;20502;-84
2022/07/19 01:46:17;;;;;;;5.57;5.17;;;19.50;75.00;;;;;;5012346;28;20787;-84
2022/07/19 01:48:47;;;;;;;5.40;4.93;;;19.50;75.60;;;;;;5012707;28;20834;-84
2022/07/19 01:51:16;;;;;;;5.93;5.43;;;19.30;76.10;;;;;;5011779;28;20960;-84
2022/07/19 01:53:43;;;;;;;5.40;5.00;;;19.10;76.90;;;;;;5012318;28;20472;-84
2022/07/19 01:56:11;;;;;;;6.43;5.10;;;19.10;77.90;;;;;;5012063;28;20463;-84
2022/07/19 01:58:38;;;;;;;4.70;4.40;;;19.00;78.30;;;;;;5011809;28;20449;-84
2022/07/19 02:01:07;;;;;;;6.73;5.63;;;19.00;79.00;;;;;;5012303;28;20456;-84
2022/07/19 02:03:34;;;;;;;6.00;5.40;;;19.00;79.10;;;;;;5012138;28;20548;-84
2022/07/19 02:06:04;;;;;;;5.50;5.10;;;19.10;78.70;;;;;;5011951;28;20486;-84
2022/07/19 02:08:31;;;;;;;5.33;4.93;;;19.10;78.90;;;;;;5012315;28;20542;-85
2022/07/19 02:10:59;;;;;;;5.17;4.67;;;19.10;78.50;;;;;;5012157;28;20505;-85
2022/07/19 02:13:27;;;;;;;6.80;5.20;;;19.10;78.30;;;;;;5012421;28;20466;-85
2022/07/19 02:15:53;;;;;;;6.20;5.60;;;19.10;78.70;;;;;;5012078;28;20450;-85
2022/07/19 02:18:20;;;;;;;7.13;5.60;;;19.10;79.00;;;;;;5011518;28;20463;-84
2022/07/19 02:20:47;;;;;;;5.00;4.60;;;19.10;79.20;;;;;;5012196;28;20768;-84
2022/07/19 02:23:14;;;;;;;5.50;5.20;;;19.00;80.00;;;;;;5011788;28;20483;-85
2022/07/19 02:25:41;;;;;;;5.13;4.63;;;19.00;80.30;;;;;;5012072;28;20796;-84
2022/07/19 02:28:07;;;;;;;5.40;5.00;;;19.00;80.00;;;;;;5011560;28;20781;-84
2022/07/19 02:30:36;;;;;;;6.67;4.50;;;19.00;80.20;;;;;;5011729;28;20457;-84
2022/07/19 02:33:02;;;;;;;5.20;4.70;;;19.00;80.60;;;;;;5011936;28;20470;-84
2022/07/19 02:35:29;;;;;;;5.10;4.70;;;19.00;80.90;;;;;;5011418;28;20450;-84
2022/07/19 02:37:56;;;;;;;5.30;4.87;;;18.90;81.50;;;;;;5011399;28;20840;-84
2022/07/19 02:40:23;;;;;;;6.07;4.53;;;18.90;81.60;;;;;;5011664;28;20973;-84
2022/07/19 02:42:50;;;;;;;6.70;6.20;;;18.90;81.80;;;;;;5011532;28;20498;-84
2022/07/19 02:45:16;;;;;;;5.90;5.40;;;18.90;82.00;;;;;;5011543;28;20825;-85
2022/07/19 02:47:46;;;;;;;7.20;5.03;;;18.90;82.30;;;;;;5011734;28;20501;-84
2022/07/19 02:50:15;;;;;;;5.20;4.80;;;18.90;83.50;;;;;;5011533;28;20438;-84
2022/07/19 02:52:42;;;;;;;4.93;4.53;;;18.90;84.00;;;;;;5011470;28;20550;-84
2022/07/19 02:55:12;;;;;;;5.80;5.40;;;18.90;84.80;;;;;;5011733;28;20442;-84
2022/07/19 02:57:39;;;;;;;5.40;5.03;;;18.90;85.70;;;;;;5011651;28;20463;-84
2022/07/19 03:00:08;;;;;;;5.50;5.10;;;18.90;85.90;;;;;;5013688;28;20533;-84
2022/07/19 03:02:35;;;;;;;5.60;5.10;;;18.80;86.30;;;;;;5014496;28;20509;-84
2022/07/19 03:05:30;;;;;;;5.73;4.43;;;18.80;87.00;;;;;;5012710;28;20435;-84
2022/07/19 03:07:57;;;;;;;5.30;4.90;;;18.70;87.30;;;;;;4991973;28;20459;-84
2022/07/19 03:13:17;;;;;;;4.87;4.57;;;18.60;88.10;;;;;;4991462;28;20966;-85
2022/07/19 03:15:44;;;;;;;5.67;5.27;;;18.60;88.30;;;;;;4998494;28;20458;-85
2022/07/19 03:18:11;;;;;;;5.23;4.83;;;18.70;89.10;;;;;;5014995;28;20454;-84
2022/07/19 03:20:42;;;;;;;5.30;4.90;;;18.60;89.10;;;;;;5014933;28;20431;-84
2022/07/19 03:23:09;;;;;;;4.70;4.40;;;18.70;89.30;;;;;;5015558;28;20493;-86
2022/07/19 03:25:35;;;;;;;5.90;5.20;;;18.60;88.90;;;;;;5015115;28;20455;-86
2022/07/19 03:28:02;;;;;;;5.80;5.40;;;18.60;88.50;;;;;;5014818;28;20461;-86
2022/07/19 03:30:29;;;;;;;7.40;5.77;;;18.60;88.50;;;;;;5032194;28;20445;-85
2022/07/19 03:32:56;;;;;;;5.00;4.60;;;18.60;88.90;;;;;;5038887;28;20497;-85
2022/07/19 03:35:22;;;;;;;5.10;4.80;;;18.60;88.90;;;;;;5028615;28;20447;-85
2022/07/19 03:38:06;;;;;;;5.53;5.10;;;18.60;89.50;;;;;;5015436;28;20464;-86
2022/07/19 03:40:33;;;;;;;6.57;4.90;;;18.60;90.30;;;;;;5015350;28;20557;-85
2022/07/19 03:42:59;;;;;;;6.37;5.87;;;18.60;90.80;;;;;;5019788;28;20562;-86
2022/07/19 03:45:26;;;;;;;5.57;5.17;;;18.60;91.10;;;;;;5039099;28;20458;-85
2022/07/19 03:47:53;;;;;;;6.00;5.60;;;18.60;91.10;;;;;;5034258;28;20456;-86
2022/07/19 03:50:19;;;;;;;5.73;5.23;;;18.60;91.20;;;;;;5020583;28;20832;-85
2022/07/19 03:52:47;;;;;;;5.50;5.10;;;18.60;91.10;;;;;;5029823;28;20462;-86
2022/07/19 03:55:16;;;;;;;5.63;5.13;;;18.60;91.20;;;;;;5038044;28;20464;-86
2022/07/19 03:57:43;;;;;;;5.67;5.23;;;18.60;91.60;;;;;;5036689;28;20458;-85
2022/07/19 04:00:14;;;;;;;5.70;5.20;;;18.50;91.70;;;;;;5014831;28;20465;-86
2022/07/19 04:02:41;;;;;;;5.20;4.80;;;18.50;91.80;;;;;;5015259;28;20482;-85
2022/07/19 04:05:08;;;;;;;6.13;5.53;;;18.50;91.90;;;;;;5014634;28;20454;-86
2022/07/19 04:07:35;;;;;;;5.00;4.60;;;18.50;91.90;;;;;;5014232;28;20462;-86
2022/07/19 04:10:02;;;;;;;4.80;4.50;;;18.50;92.00;;;;;;5014169;28;20937;-86
2022/07/19 04:12:30;;;;;;;6.63;6.13;;;18.60;92.10;;;;;;5014696;28;20469;-85
2022/07/19 04:14:57;;;;;;;5.40;4.90;;;18.50;92.10;;;;;;5013964;28;20454;-86
2022/07/19 04:17:24;;;;;;;6.40;4.87;;;18.50;92.20;;;;;;5013995;28;20453;-86
2022/07/19 04:19:54;;;;;;;6.40;5.80;;;18.60;92.40;;;;;;5013732;28;20462;-86
2022/07/19 04:22:23;;;;;;;6.13;5.37;;;18.50;92.20;;;;;;5013770;28;20454;-85
2022/07/19 04:24:50;;;;;;;6.27;5.77;;;18.50;92.20;;;;;;5013950;28;20851;-86
2022/07/19 04:27:17;;;;;;;6.40;5.67;;;18.50;92.40;;;;;;5013495;28;20461;-85
2022/07/19 04:29:47;;;;;;;6.67;5.90;;;18.50;92.20;;;;;;5013845;28;20450;-85
2022/07/19 04:32:14;;;;;;;5.13;4.73;;;18.50;92.40;;;;;;5013362;28;20465;-86
2022/07/19 04:34:41;;;;;;;4.77;4.43;;;18.50;92.70;;;;;;5013597;28;20481;-85
2022/07/19 04:37:07;;;;;;;4.93;4.60;;;18.40;92.90;;;;;;5013543;28;20458;-86
2022/07/19 04:39:34;;;;;;;5.00;4.50;;;18.40;93.00;;;;;;5013927;28;20824;-86
2022/07/19 04:42:01;;;;;;;5.70;5.20;;;18.40;93.30;;;;;;5013490;28;20468;-86
2022/07/19 04:44:27;;;;;;;6.93;5.77;;;18.40;93.40;;;;;;5013352;28;20846;-86
2022/07/19 04:46:55;;;;;;;5.40;4.90;;;18.40;93.20;;;;;;5013070;28;20458;-86
2022/07/19 04:49:25;;;;;;;5.50;5.13;;;18.40;93.10;;;;;;5013296;28;20464;-86
2022/07/19 04:51:52;;;;;;;5.13;4.70;;;18.50;93.10;;;;;;5013294;28;20937;-86
2022/07/19 04:54:19;;;;;;;5.77;5.33;;;18.50;93.10;;;;;;5013294;28;20477;-86
2022/07/19 04:56:45;;;;;;;5.80;5.40;;;18.60;93.30;;;;;;5012910;28;20819;-86
2022/07/19 04:59:12;;;;;;;5.43;5.13;;;18.70;93.80;;;;;;5013432;28;20449;-86
2022/07/19 05:01:56;;;;;;;6.23;5.73;;;18.70;94.20;;;;;;5012932;28;20976;-86
2022/07/19 05:04:23;;;;;;;5.30;4.90;;;18.80;94.20;;;;;;5012904;28;20500;-86
2022/07/19 05:06:51;;;;;;;5.70;5.00;;;18.80;94.30;;;;;;5013507;28;20461;-86
2022/07/19 05:12:36;;;;;;;7.17;5.97;;;18.90;93.90;;;;;;4919659;28;20446;-87
2022/07/19 05:15:05;;;;;;;5.80;5.30;;;18.90;93.70;;;;;;5005869;28;20454;-86
2022/07/19 05:17:37;;;;;;;5.57;5.20;;;19.00;93.40;;;;;;5012775;28;20453;-87
2022/07/19 05:20:06;;;;;;;5.60;5.10;;;19.10;93.30;;;;;;5013070;28;20462;-86
2022/07/19 05:22:35;;;;;;;5.93;5.53;;;19.20;93.20;;;;;;5012569;28;20462;-87
2022/07/19 05:25:02;;;;;;;6.30;5.43;;;19.30;92.90;;;;;;5012205;28;20474;-87
2022/07/19 05:27:30;;;;;;;8.03;6.10;;;19.40;92.60;;;;;;5012850;28;20444;-87
2022/07/19 05:29:57;;;;;;;6.33;5.50;;;19.50;92.20;;;;;;5012436;28;20952;-87
2022/07/19 05:32:24;;;;;;;5.63;5.13;;;19.50;92.00;;;;;;5012665;28;20549;-88
2022/07/19 05:35:00;;;;;;;5.43;5.00;;;19.60;91.90;;;;;;5011859;28;20448;-87
2022/07/19 05:37:27;;;;;;;6.53;5.37;;;19.70;91.80;;;;;;5012817;28;20458;-87
2022/07/19 05:39:57;;;;;;;5.73;5.33;;;19.80;91.60;;;;;;5017715;28;20474;-87
2022/07/19 05:42:29;;;;;;;7.20;6.50;;;20.00;91.80;;;;;;5012580;28;20489;-87
2022/07/19 05:45:01;;;;;;;6.50;5.60;;;20.10;92.00;;;;;;5011818;28;20486;-87
2022/07/19 05:47:28;;;;;;;6.77;5.70;;;20.20;92.10;;;;;;5012477;28;20456;-87
2022/07/19 05:50:00;;;;;;;5.93;5.40;;;20.30;91.80;;;;;;5012390;28;20451;-87
2022/07/19 05:52:27;;;;;;;6.13;5.60;;;20.40;91.50;;;;;;5012494;28;20436;-87
2022/07/19 05:54:54;;;;;;;5.67;5.23;;;20.50;91.30;;;;;;5012094;28;20947;-87
2022/07/19 05:57:21;;;;;;;6.07;5.10;;;20.60;90.70;;;;;;5012082;28;20463;-87
2022/07/19 05:59:48;;;;;;;6.40;4.77;;;20.70;90.20;;;;;;5012677;28;20459;-87
2022/07/19 06:02:16;;;;;;;5.70;5.30;;;20.80;90.00;;;;;;5012289;28;20460;-87
2022/07/19 06:04:43;;;;;;;6.27;5.80;;;20.90;90.00;;;;;;4993196;28;20574;-86
2022/07/19 06:07:11;;;;;;;5.33;4.93;;;21.00;90.30;;;;;;5000468;28;20458;-86
2022/07/19 06:09:38;;;;;;;5.97;5.50;;;21.10;90.00;;;;;;5012633;28;20441;-86
2022/07/19 06:12:05;;;;;;;4.93;4.43;;;21.20;89.60;;;;;;5012355;28;20532;-86
2022/07/19 06:14:32;;;;;;;5.43;4.97;;;21.30;88.10;;;;;;5012244;28;20844;-86
2022/07/19 06:16:59;;;;;;;5.30;4.80;;;21.40;86.90;;;;;;5012074;28;20975;-87
2022/07/19 06:19:26;;;;;;;5.03;4.53;;;21.50;86.20;;;;;;5012510;28;20512;-85
2022/07/19 06:21:53;;;;;;;4.87;4.57;;;21.60;84.50;;;;;;5011281;28;20516;-86
2022/07/19 06:24:21;;;;;;;4.70;4.40;;;21.70;83.00;;;;;;5008629;28;20566;-87
2022/07/19 06:26:48;;;;;;;4.60;4.03;;;21.80;83.70;;;;;;5010899;28;20460;-86
2022/07/19 06:29:15;;;;;;;5.00;4.50;;;21.90;80.50;;;;;;5010859;28;20453;-86
2022/07/19 06:31:42;;;;;;;7.50;4.83;;;22.00;78.60;;;;;;5011413;28;20453;-88
2022/07/19 06:34:12;;;;;;;5.60;4.33;;;22.10;78.50;;;;;;5012061;28;20463;-86
2022/07/19 06:36:38;;;;;;;5.37;4.17;;;22.10;77.50;;;;;;5012121;28;20464;-86
2022/07/19 06:39:05;;;;;;;3.83;3.53;;;22.30;76.30;;;;;;5010809;28;20536;-85
2022/07/19 06:41:33;;;;;;;5.07;4.67;;;22.30;76.40;;;;;;5010957;28;20446;-87
2022/07/19 06:44:00;;;;;;;4.37;4.03;;;22.40;75.90;;;;;;5008211;28;20543;-86
2022/07/19 06:46:27;;;;;;;4.40;4.10;;;22.50;76.00;;;;;;5014619;28;20823;-85
2022/07/19 06:48:53;;;;;;;4.60;4.20;;;22.60;75.70;;;;;;5016146;28;20456;-89
2022/07/19 06:51:20;;;;;;;5.53;5.07;;;22.60;76.80;;;;;;5003709;28;20473;-86
2022/07/19 06:53:47;;;;;;;4.47;4.07;;;22.70;75.90;;;;;;4999396;28;20466;-85
2022/07/19 06:56:14;;;;;;;4.80;4.40;;;22.70;76.90;;;;;;5015269;28;20461;-85
2022/07/19 06:58:42;;;;;;;6.17;3.70;;;22.80;75.40;;;;;;5014283;28;20938;-85
2022/07/19 07:01:09;;;;;;;5.93;4.33;;;22.90;75.20;;;;;;5016195;28;20458;-85
2022/07/19 07:03:36;;;;;;;3.70;3.40;;;23.00;74.10;;;;;;5015220;28;20567;-85
2022/07/19 07:06:03;;;;;;;4.00;3.70;;;23.10;73.50;;;;;;5015806;28;20840;-85
2022/07/19 07:08:30;;;;;;;10.30;3.70;;;23.30;72.50;;;;;;5017985;28;20453;-86
2022/07/19 07:10:57;;;;;;;4.10;3.70;;;23.30;70.80;;;;;;5011252;28;20454;-86
2022/07/19 07:13:23;;;;;;;3.70;3.40;;;23.40;71.60;;;;;;5015516;28;20564;-86
2022/07/19 07:16:11;;;;;;;5.47;4.20;;;23.50;69.10;;;;;;5015392;28;20450;-86
2022/07/19 07:18:38;;;;;;;3.83;3.43;;;23.60;69.30;;;;;;5015461;28;20446;-86
2022/07/19 07:21:05;;;;;;;4.70;3.10;;;23.70;68.50;;;;;;5015153;28;20505;-86
2022/07/19 07:23:32;;;;;;;4.10;3.80;;;23.80;66.80;;;;;;5015103;28;20840;-86
2022/07/19 07:25:59;;;;;;;4.00;3.70;;;23.90;68.30;;;;;;5015345;28;20450;-86
2022/07/19 07:28:25;;;;;;;5.20;3.80;;;24.00;66.40;;;;;;5015150;28;20465;-86
2022/07/19 07:30:58;;;;;;;3.30;3.00;;;24.10;67.30;;;;;;5015236;28;20462;-86
2022/07/19 07:33:53;;;;;;;4.03;2.90;;;24.20;67.30;;;;;;5015104;28;20466;-86
2022/07/19 07:36:25;;;;;;;6.27;3.27;;;24.30;68.20;;;;;;5014470;28;20451;-86
2022/07/19 07:38:53;;;;;;;4.03;3.73;;;24.40;67.60;;;;;;5014964;28;20981;-86
2022/07/19 07:41:20;;;;;;;4.57;3.50;;;24.60;67.20;;;;;;5014293;28;20469;-86
2022/07/19 07:43:46;;;;;;;4.30;3.90;;;24.60;66.70;;;;;;5014672;28;20464;-86
2022/07/19 07:46:13;;;;;;;5.03;3.30;;;24.80;67.90;;;;;;5014427;28;20459;-86
2022/07/19 07:48:40;;;;;;;3.90;3.60;;;24.90;67.20;;;;;;5014855;28;20458;-86
2022/07/19 07:51:28;;;;;;;4.30;3.50;;;25.10;67.90;;;;;;5014839;28;20445;-86
2022/07/19 07:53:55;;;;;;;4.23;3.93;;;25.20;66.30;;;;;;5014474;28;20476;-86
2022/07/19 07:56:22;;;;;;;3.80;3.30;;;25.40;65.50;;;;;;5014000;28;20450;-86
2022/07/19 07:58:49;;;;;;;3.03;2.83;;;25.50;63.90;;;;;;5014139;28;20452;-86
2022/07/19 08:01:17;;;;;;;3.27;2.97;;;25.60;60.50;;;;;;5016974;28;20556;-86
2022/07/19 08:03:44;;;;;;;3.70;2.90;;;25.70;60.60;;;;;;5020305;28;20539;-85
2022/07/19 08:06:10;;;;;;;3.00;2.70;;;25.80;59.40;;;;;;5018534;28;20464;-86
2022/07/19 08:08:40;;;;;;;3.27;2.97;;;26.00;58.30;;;;;;5017903;28;20498;-86
2022/07/19 08:11:07;;;;;;;2.80;2.60;;;26.10;57.60;;;;;;5034953;28;20457;-86
2022/07/19 08:13:34;;;;;;;3.50;3.17;;;26.20;57.70;;;;;;5033087;28;20493;-86
2022/07/19 08:16:01;;;;;;;3.57;3.27;;;26.30;56.70;;;;;;5016010;28;20458;-86
2022/07/19 08:18:27;;;;;;;3.70;3.40;;;26.40;56.90;;;;;;5014913;28;20458;-86
2022/07/19 08:20:56;;;;;;;4.90;3.27;;;26.50;58.00;;;;;;5015944;28;20447;-86
2022/07/19 08:23:23;;;;;;;9.40;3.90;;;26.60;56.10;;;;;;5017027;28;20492;-86
2022/07/19 08:25:55;;;;;;;3.47;3.17;;;26.70;55.10;;;;;;5019935;28;20492;-86
2022/07/19 08:28:24;;;;;;;4.23;2.53;;;26.90;55.30;;;;;;5027617;28;20455;-86
2022/07/19 08:30:51;;;;;;;4.50;3.63;;;27.00;55.60;;;;;;5024544;28;20461;-86
2022/07/19 08:33:18;;;;;;;3.80;3.07;;;27.10;55.70;;;;;;5031423;28;20483;-86
2022/07/19 08:35:45;;;;;;;4.23;3.67;;;27.20;53.90;;;;;;5033285;28;20511;-86
2022/07/19 08:38:12;;;;;;;3.23;2.97;;;27.40;54.30;;;;;;5025440;28;20454;-86
2022/07/19 08:40:43;;;;;;;3.77;3.40;;;27.50;54.00;;;;;;5022933;28;20463;-86
2022/07/19 08:43:12;;;;;;;3.83;3.47;;;27.60;55.20;;;;;;5019317;28;20473;-86
2022/07/19 08:45:40;;;;;;;3.00;2.80;;;27.70;53.60;;;;;;5014328;28;20504;-86
2022/07/19 08:48:08;;;;;;;3.00;2.67;;;27.80;53.00;;;;;;5013752;28;20555;-86
2022/07/19 08:50:35;;;;;;;3.10;2.87;;;27.90;52.40;;;;;;5013519;28;20804;-86
2022/07/19 08:53:06;;;;;;;4.17;3.30;;;28.00;52.20;;;;;;5013237;28;20484;-86
2022/07/19 08:55:34;;;;;;;3.17;2.87;;;28.10;51.90;;;;;;5013548;28;20446;-86
2022/07/19 08:58:01;;;;;;;3.23;3.03;;;28.20;51.60;;;;;;5012886;28;20458;-86
2022/07/19 09:00:31;;;;;;;3.53;3.33;;;28.30;51.90;;;;;;5013143;28;20454;-86
2022/07/19 09:03:01;;;;;;;3.50;3.20;;;28.30;51.20;;;;;;5013458;28;20571;-86
2022/07/19 09:05:29;;;;;;;2.80;2.70;;;28.50;50.80;;;;;;5013105;28;20595;-86
2022/07/19 09:08:10;;;;;;;2.83;2.63;;;28.60;49.20;;;;;;5013020;28;20453;-86
2022/07/19 09:10:38;;;;;;;3.10;2.90;;;28.70;48.90;;;;;;5012631;28;20879;-86
2022/07/19 09:13:09;;;;;;;3.20;2.90;;;28.80;50.00;;;;;;5013372;28;20485;-86
2022/07/19 09:15:52;;;;;;;4.20;3.30;;;28.90;48.90;;;;;;5013238;28;20450;-86
2022/07/19 09:18:21;;;;;;;4.33;2.90;;;29.10;48.80;;;;;;5013301;28;20466;-86
2022/07/19 09:20:51;;;;;;;3.03;2.83;;;29.20;49.10;;;;;;5013134;28;20458;-86
2022/07/19 09:23:18;;;;;;;4.57;2.97;;;29.30;49.30;;;;;;5021957;23;20503;-79
2022/07/19 09:25:48;;;;;;;3.33;2.90;;;29.40;48.80;;;;;;4983310;28;20854;-79
2022/07/19 09:28:15;;;;;;;4.80;3.70;;;29.50;48.70;;;;;;4984776;28;20869;-82
2022/07/19 09:30:45;;;;;;;3.40;3.10;;;29.60;49.70;;;;;;4984446;28;20458;-82
2022/07/19 09:33:14;;;;;;;3.47;3.27;;;29.70;47.90;;;;;;4984826;28;20479;-80
2022/07/19 09:35:44;;;;;;;4.80;3.03;;;29.90;48.80;;;;;;4983549;28;20451;-79
2022/07/19 09:38:22;;;;;;;3.40;3.20;;;30.00;47.90;;;;;;4985469;28;20481;-83
2022/07/19 09:40:50;;;;;;;2.60;2.40;;;30.10;46.90;;;;;;4984756;28;20466;-80
2022/07/19 09:43:19;;;;;;;5.13;3.30;;;30.30;47.80;;;;;;4983881;28;20847;-79
2022/07/19 09:45:47;;;;;;;4.30;2.90;;;30.40;45.50;;;;;;4983105;28;20494;-80
2022/07/19 09:48:13;;;;;;;3.20;2.90;;;30.50;45.90;;;;;;4985576;28;20948;-82
2022/07/19 09:50:41;;;;;;;3.37;3.07;;;30.60;45.70;;;;;;4985293;28;20456;-81
2022/07/19 09:53:08;;;;;;;3.90;3.60;;;30.70;44.30;;;;;;4984768;28;20481;-81
2022/07/19 09:55:35;;;;;;;3.57;3.23;;;30.80;46.20;;;;;;4983686;28;20453;-82
2022/07/19 09:58:03;;;;;;;3.67;3.00;;;30.90;44.40;;;;;;4984888;28;20457;-82
2022/07/19 10:00:30;;;;;;;3.50;3.20;;;31.10;43.80;;;;;;4984197;28;20458;-82
2022/07/19 10:03:00;;;;;;;3.87;3.57;;;31.20;43.30;;;;;;4984451;28;20795;-79
2022/07/19 10:05:29;;;;;;;4.37;3.70;;;31.40;42.80;;;;;;4984756;28;20472;-80
2022/07/19 10:07:56;;;;;;;3.50;2.57;;;31.50;42.40;;;;;;4984115;28;20463;-79
2022/07/19 10:10:30;;;;;;;3.63;3.33;;;31.60;42.10;;;;;;4985418;28;20479;-81
2022/07/19 10:12:58;;;;;;;4.33;3.70;;;31.70;40.90;;;;;;4984940;28;20458;-79
2022/07/19 10:15:26;;;;;;;4.43;3.50;;;31.90;41.50;;;;;;4984046;28;20450;-80
2022/07/19 10:18:04;;;;;;;3.30;3.03;;;32.10;40.00;;;;;;4983977;28;20465;-81
2022/07/19 10:20:32;;;;;;;4.33;3.10;;;32.20;38.70;;;;;;4983228;28;20462;-82
2022/07/19 10:23:00;;;;;;;4.00;3.70;;;32.30;38.20;;;;;;4984934;28;20470;-81
2022/07/19 10:25:38;;;;;;;3.57;3.37;;;32.30;38.30;;;;;;4984271;28;20501;-80
2022/07/19 10:28:05;;;;;;;4.70;3.30;;;32.40;39.40;;;;;;4983654;28;20464;-80
2022/07/19 10:30:41;;;;;;;3.87;3.20;;;32.60;39.60;;;;;;4984107;28;20810;-81
2022/07/19 10:33:31;;;;;;;3.63;3.30;;;32.70;38.50;;;;;;4983685;28;20490;-80
2022/07/19 10:35:58;;;;;;;3.90;3.60;;;32.90;39.30;;;;;;4983397;28;20454;-81
2022/07/19 10:38:25;;;;;;;4.03;3.73;;;33.10;39.10;;;;;;4984080;28;20966;-80
2022/07/19 10:40:56;;;;;;;4.40;4.00;;;33.30;37.90;;;;;;4983508;28;20479;-81
2022/07/19 10:43:23;;;;;;;3.67;3.40;;;33.50;38.30;;;;;;4984240;28;20531;-80
2022/07/19 10:46:11;;;;;;;3.73;3.30;;;33.60;36.40;;;;;;4983919;28;20906;-81
2022/07/19 10:48:40;;;;;;;7.30;4.20;;;33.60;35.60;;;;;;4984433;28;21130;-81
2022/07/19 10:51:10;;;;;;;4.80;4.30;;;33.80;37.60;;;;;;4983958;28;20796;-80
2022/07/19 10:54:02;;;;;;;3.60;3.30;;;34.00;36.50;;;;;;4983329;28;20480;-80
2022/07/19 10:56:35;;;;;;;3.73;3.53;;;34.20;36.40;;;;;;4982797;28;20440;-80
2022/07/19 10:59:05;;;;;;;3.47;3.27;;;34.40;35.10;;;;;;4984415;28;20452;-81
2022/07/19 11:01:33;;;;;;;4.20;3.67;;;34.50;35.70;;;;;;4983213;28;20483;-81
2022/07/19 11:04:29;;;;;;;3.37;3.17;;;34.70;35.70;;;;;;4983084;28;20538;-80
2022/07/19 11:07:13;;;;;;;3.17;2.97;;;35.10;33.80;;;;;;4984017;28;20484;-81
2022/07/19 11:09:41;;;;;;;3.00;2.80;;;35.30;34.50;;;;;;4983773;28;20451;-80
2022/07/19 11:12:30;;;;;;;3.43;3.23;;;35.60;34.20;;;;;;4983917;28;20460;-81
2022/07/19 11:14:58;;;;;;;5.17;3.40;;;36.00;33.90;;;;;;4984296;28;20481;-79
2022/07/19 11:17:25;;;;;;;4.30;3.10;;;36.20;31.60;;;;;;4984735;28;20546;-80
2022/07/19 11:20:07;;;;;;;3.80;3.43;;;36.50;33.80;;;;;;4983870;28;20448;-81
2022/07/19 11:22:36;;;;;;;3.53;3.33;;;36.80;31.40;;;;;;4983495;28;20551;-79
2022/07/19 11:25:04;;;;;;;3.73;3.10;;;37.30;31.50;;;;;;4983260;28;20503;-80
2022/07/19 11:27:32;;;;;;;3.90;3.60;;;37.60;30.00;;;;;;4982757;28;20459;-80
2022/07/19 11:30:01;;;;;;;3.80;3.60;;;37.80;28.90;;;;;;4983264;28;21084;-80
2022/07/19 11:32:28;;;;;;;3.60;3.30;;;38.10;32.60;;;;;;4984806;28;20447;-80
2022/07/19 11:34:56;;;;;;;5.13;4.40;;;38.50;29.50;;;;;;4986648;28;20479;-80
2022/07/19 11:37:30;;;;;;;4.20;3.90;;;38.80;29.80;;;;;;4986557;28;20452;-80
2022/07/19 11:39:57;;;;;;;3.43;3.23;;;39.20;30.40;;;;;;4987395;28;20452;-80
2022/07/19 11:42:38;;;;;;;3.80;3.50;;;39.80;29.80;;;;;;4986470;28;20454;-80
2022/07/19 11:45:13;;;;;;;3.90;3.70;;;40.40;29.70;;;;;;4987307;28;20495;-80
2022/07/19 11:47:48;;;;;;;3.57;3.27;;;40.80;28.40;;;;;;4986339;28;20940;-80
2022/07/19 11:50:17;;;;;;;3.70;3.40;;;41.20;27.60;;;;;;4986464;28;20448;-80
2022/07/19 11:52:51;;;;;;;3.60;3.40;;;41.50;27.40;;;;;;4986430;28;20448;-80
2022/07/19 11:55:19;;;;;;;3.90;3.70;;;41.70;27.10;;;;;;4987695;28;20448;-81
2022/07/19 11:57:47;;;;;;;3.93;3.63;;;42.10;26.20;;;;;;4985717;28;20455;-80
2022/07/19 12:00:14;;;;;;;4.53;3.93;;;42.00;25.80;;;;;;4986264;28;20559;-80
2022/07/19 12:02:51;;;;;;;3.77;3.27;;;42.00;26.00;;;;;;4985485;28;20456;-81
2022/07/19 12:05:18;;;;;;;3.73;3.53;;;42.10;26.10;;;;;;4986543;28;20483;-80
2022/07/19 12:07:48;;;;;;;3.97;3.70;;;42.40;25.60;;;;;;4986415;28;20451;-79
2022/07/19 12:10:33;;;;;;;4.37;4.03;;;42.50;25.80;;;;;;4985600;28;20448;-81
2022/07/19 12:12:59;;;;;;;3.50;3.30;;;42.30;25.00;;;;;;4986156;28;20556;-79
2022/07/19 12:15:26;;;;;;;4.50;4.10;;;42.30;25.00;;;;;;4985629;28;20448;-81
2022/07/19 12:17:57;;;;;;;4.03;3.73;;;42.60;26.30;;;;;;4982202;28;20451;-79
2022/07/19 12:20:24;;;;;;;3.80;3.50;;;42.90;26.20;;;;;;4983396;28;20448;-80
2022/07/19 12:22:52;;;;;;;5.20;3.70;;;43.30;26.10;;;;;;4981744;28;20452;-79
2022/07/19 12:25:37;;;;;;;4.30;3.80;;;43.40;24.20;;;;;;4981363;28;20483;-79
2022/07/19 12:28:05;;;;;;;4.43;3.70;;;43.30;24.30;;;;;;4981458;28;20959;-79
2022/07/19 12:30:32;;;;;;;4.10;3.80;;;43.40;24.40;;;;;;4981342;28;20543;-79
2022/07/19 12:33:08;;;;;;;4.07;3.77;;;43.30;24.60;;;;;;4981183;28;20475;-80
2022/07/19 12:35:45;;;;;;;3.80;3.60;;;43.30;24.50;;;;;;4981542;28;20447;-80
2022/07/19 12:38:14;;;;;;;4.07;3.67;;;43.30;24.80;;;;;;4981034;28;20452;-79
2022/07/19 12:40:42;;;;;;;5.83;4.10;;;43.40;24.50;;;;;;4981160;28;20448;-80
2022/07/19 12:43:12;;;;;;;4.10;3.80;;;43.90;26.00;;;;;;4981241;28;21021;-79
2022/07/19 12:45:43;;;;;;;6.50;4.23;;;44.30;24.00;;;;;;4980722;28;21065;-80
2022/07/19 12:48:12;;;;;;;4.53;4.03;;;44.10;22.80;;;;;;4980420;28;20942;-79
2022/07/19 12:50:41;;;;;;;3.50;3.30;;;44.30;23.60;;;;;;4981566;28;20448;-80
2022/07/19 12:53:10;;;;;;;4.10;3.80;;;44.40;24.20;;;;;;4980426;28;20476;-80
2022/07/19 12:55:40;;;;;;;3.87;3.50;;;44.70;24.10;;;;;;4981159;28;20452;-79
2022/07/19 12:58:08;;;;;;;4.60;3.90;;;45.00;23.00;;;;;;4980845;28;20460;-80
2022/07/19 13:00:36;;;;;;;3.60;3.17;;;45.10;23.90;;;;;;4982246;28;20456;-81
2022/07/19 13:03:03;;;;;;;4.37;3.90;;;45.40;23.60;;;;;;4981014;28;20476;-79
2022/07/19 13:05:31;;;;;;;4.17;3.87;;;45.80;22.80;;;;;;4983245;28;20487;-79
2022/07/19 13:07:58;;;;;;;4.43;3.93;;;45.80;22.60;;;;;;4981859;28;20452;-80
2022/07/19 13:10:25;;;;;;;5.00;3.87;;;46.20;22.80;;;;;;4982500;28;20458;-80
2022/07/19 13:12:53;;;;;;;3.73;3.07;;;46.30;22.80;;;;;;4983108;28;20459;-81